METAR Formatted Surface Weather Observation
Issued by NWS

Home | Current Version | Previous Version | Text Only | Print | Product List | Glossary On
Versions: 1 2 3 4 5 6
000
SAUS46 KSEW 230703
MTRSMP
METAR KSMP 230656Z AUTO 00000KT 10SM CLR 11/08 A3020 RMK AO2 SLP214
T01060078



USA.gov is the U.S. government's official web portal to all federal, state and local government web resources and services.